Time;durP1;ratioP1;P1;durP2;ratioP2;P2;SDS_P1;SDS_P2;PMS_P1;PMS_P2;Temp;Humidity;BMP_temperature;BMP_pressure;BME280_temperature;BME280_humidity;BME280_pressure;Samples;Min_cycle;Max_cycle;Signal;HPM_P1;HPM_P2
2022/05/19 00:02:06;;;;;;;2.07;1.50;;;;;;;22.63;36.83;96084.03;6235886;27;104165;-56
2022/05/19 00:05:10;;;;;;;2.83;1.50;;;;;;;22.60;36.51;96086.47;6239589;27;103155;-56
2022/05/19 00:08:13;;;;;;;1.50;1.40;;;;;;;22.62;36.36;96090.44;6233286;27;103636;-56
2022/05/19 00:11:20;;;;;;;2.30;1.33;;;;;;;22.60;36.70;96092.59;6236659;27;104234;-54
2022/05/19 00:14:23;;;;;;;1.53;1.10;;;;;;;22.60;36.67;96084.59;6253455;27;104123;-56
2022/05/19 00:17:27;;;;;;;1.20;1.10;;;;;;;22.57;36.58;96087.84;6249968;27;104133;-56
2022/05/19 00:20:30;;;;;;;1.73;1.60;;;;;;;22.54;36.30;96085.72;6234609;27;103223;-56
2022/05/19 00:23:34;;;;;;;1.40;1.30;;;;;;;22.54;36.17;96085.72;6252182;27;103278;-56
2022/05/19 00:26:38;;;;;;;1.30;1.20;;;;;;;22.57;35.92;96090.50;6242067;27;103414;-56
2022/05/19 00:29:41;;;;;;;1.20;1.10;;;;;;;22.54;35.73;96096.38;6239299;27;103259;-56
2022/05/19 00:32:44;;;;;;;1.40;1.30;;;;;;;22.56;36.21;96094.22;6251954;27;105244;-56
2022/05/19 00:35:47;;;;;;;2.10;1.37;;;;;;;22.56;36.27;96096.09;6244904;27;103948;-57
2022/05/19 00:38:50;;;;;;;1.63;1.23;;;;;;;22.56;35.77;96098.78;6252232;27;104142;-56
2022/05/19 00:45:14;;;;;;;1.50;1.37;;;;;;;22.53;36.10;96102.81;6235695;27;103448;-56
2022/05/19 00:48:20;;;;;;;1.83;1.17;;;;;;;22.48;35.84;96105.50;6242420;27;104097;-56
2022/05/19 00:51:31;;;;;;;1.23;1.13;;;;;;;22.50;35.59;96111.34;6260426;27;104125;-56
2022/05/19 00:54:40;;;;;;;2.07;1.10;;;;;;;22.50;35.41;96106.00;6236558;27;103737;-56
2022/05/19 00:57:50;;;;;;;2.20;1.20;;;;;;;22.49;35.75;96114.28;6252545;27;103215;-55
2022/05/19 01:00:55;;;;;;;1.40;1.23;;;;;;;22.47;35.54;96119.91;6258430;27;103056;-56
2022/05/19 01:04:04;;;;;;;2.27;1.20;;;;;;;22.47;35.47;96108.44;6234026;27;102975;-56
2022/05/19 01:07:18;;;;;;;1.30;1.17;;;;;;;22.44;35.65;96122.34;6250150;27;104406;-56
2022/05/19 01:10:22;;;;;;;1.90;1.30;;;;;;;22.45;35.31;96124.72;6242701;27;103223;-56
2022/05/19 01:13:30;;;;;;;2.30;1.50;;;;;;;22.46;35.57;96129.00;6233529;27;104245;-55
2022/05/19 01:16:33;;;;;;;2.40;1.10;;;;;;;22.45;35.73;96135.41;6239255;27;103064;-57
2022/05/19 01:19:39;;;;;;;3.33;1.20;;;;;;;22.44;35.28;96133.81;6244588;27;103971;-56
2022/05/19 01:22:52;;;;;;;2.80;1.50;;;;;;;22.44;35.70;96128.47;6256701;27;103036;-55
2022/05/19 01:26:05;;;;;;;1.30;1.20;;;;;;;22.45;35.15;96121.28;6245601;27;104006;-58
2022/05/19 01:29:13;;;;;;;1.77;0.90;;;;;;;22.42;34.94;96126.09;6248780;27;104162;-56
2022/05/19 01:32:27;;;;;;;1.53;0.90;;;;;;;22.44;35.50;96130.34;6244015;27;104181;-56
2022/05/19 01:35:33;;;;;;;2.40;1.30;;;;;;;22.41;35.15;96127.19;6249651;27;103117;-56
2022/05/19 01:38:36;;;;;;;1.43;1.03;;;;;;;22.41;35.15;96131.72;6236845;27;104012;-56
2022/05/19 01:41:49;;;;;;;1.60;1.07;;;;;;;22.41;35.33;96129.03;6258153;27;104134;-56
2022/05/19 01:44:59;;;;;;;1.43;1.20;;;;;;;22.39;35.26;96139.19;6249923;27;103515;-56
2022/05/19 01:48:09;;;;;;;1.73;1.23;;;;;;;22.39;35.33;96136.53;6251737;27;103022;-58
2022/05/19 01:51:23;;;;;;;1.53;1.20;;;;;;;22.36;35.31;96142.44;6233147;27;104511;-57
2022/05/19 01:54:34;;;;;;;2.57;1.50;;;;;;;22.37;35.73;96144.03;6245251;27;103146;-61
2022/05/19 01:57:42;;;;;;;1.90;1.13;;;;;;;22.35;35.63;96146.19;6246212;27;103693;-58
2022/05/19 02:00:49;;;;;;;2.27;1.30;;;;;;;22.36;35.48;96145.09;6242920;27;104854;-58
2022/05/19 02:04:02;;;;;;;5.63;1.60;;;;;;;22.32;35.25;96152.06;6245275;27;104427;-58
2022/05/19 02:07:09;;;;;;;1.37;1.27;;;;;;;22.34;35.00;96161.34;6239003;27;104282;-58
2022/05/19 02:10:17;;;;;;;1.43;1.33;;;;;;;22.34;34.95;96152.56;6247216;27;103041;-58
2022/05/19 02:13:21;;;;;;;3.67;1.53;;;;;;;22.33;35.44;96161.63;6227040;27;103057;-58
2022/05/19 02:16:26;;;;;;;1.60;1.40;;;;;;;22.31;35.29;96159.25;6250895;27;104303;-58
2022/05/19 02:19:43;;;;;;;1.33;1.23;;;;;;;22.31;34.94;96161.91;6261053;27;103835;-58
2022/05/19 02:22:47;;;;;;;1.60;1.50;;;;;;;22.33;34.67;96166.97;6248705;27;106292;-58
2022/05/19 02:25:52;;;;;;;0.97;0.93;;;;;;;22.29;35.21;96163.28;6257746;27;103355;-58
2022/05/19 02:28:59;;;;;;;1.20;1.10;;;;;;;22.29;34.75;96160.63;6250716;27;102999;-57
2022/05/19 02:32:06;;;;;;;2.00;1.20;;;;;;;22.30;35.09;96164.88;6245034;27;103272;-58
2022/05/19 02:35:09;;;;;;;1.40;1.30;;;;;;;22.29;34.76;96171.28;6226169;27;104184;-58
2022/05/19 02:38:13;;;;;;;3.30;1.10;;;;;;;22.26;34.30;96161.97;6237892;28;103783;-58
2022/05/19 02:41:16;;;;;;;1.20;1.10;;;;;;;22.26;34.89;96163.84;6251996;27;104692;-58
2022/05/19 02:44:19;;;;;;;2.47;1.17;;;;;;;22.24;34.83;96158.00;6247305;27;103199;-58
2022/05/19 02:47:24;;;;;;;1.47;1.37;;;;;;;22.24;35.17;96158.00;6236383;27;104125;-58
2022/05/19 02:50:27;;;;;;;1.33;1.23;;;;;;;22.24;34.87;96163.31;6253013;27;103928;-58
2022/05/19 02:53:31;;;;;;;1.87;1.47;;;;;;;22.28;35.20;96165.16;6259924;27;103771;-58
2022/05/19 02:56:34;;;;;;;3.63;1.20;;;;;;;22.21;35.21;96161.22;6245361;27;103089;-58
2022/05/19 02:59:37;;;;;;;1.40;1.30;;;;;;;22.24;34.80;96168.66;6237127;27;104045;-58
2022/05/19 03:02:42;;;;;;;1.60;1.50;;;;;;;22.23;34.82;96167.06;6247103;27;103233;-57
2022/05/19 03:05:46;;;;;;;1.60;1.50;;;;;;;22.23;34.75;96167.06;6247786;27;103893;-58
2022/05/19 03:08:49;;;;;;;2.20;1.30;;;;;;;22.28;35.01;96167.03;6234300;27;104805;-58
2022/05/19 03:11:52;;;;;;;1.50;1.40;;;;;;;22.31;35.31;96169.13;6257394;27;103144;-58
2022/05/19 03:14:56;;;;;;;3.00;1.77;;;;;;;22.36;36.37;96167.22;6242560;27;103825;-58
2022/05/19 03:18:01;;;;;;;2.93;2.07;;;;;;;22.39;36.19;96171.22;6259914;27;103327;-58
2022/05/19 03:21:04;;;;;;;1.80;1.70;;;;;;;22.42;36.50;96173.31;6235848;27;103305;-58
2022/05/19 03:24:08;;;;;;;7.20;1.70;;;;;;;22.42;36.37;96170.66;6242642;27;104192;-58
2022/05/19 03:27:11;;;;;;;1.60;1.33;;;;;;;22.42;36.56;96167.97;6241062;27;104149;-58
2022/05/19 03:30:17;;;;;;;2.73;1.43;;;;;;;22.41;36.41;96177.84;6253832;27;103477;-58
2022/05/19 03:33:21;;;;;;;4.63;2.13;;;;;;;22.39;36.17;96184.53;6243044;27;104382;-58
2022/05/19 03:36:24;;;;;;;2.30;1.20;;;;;;;22.10;34.53;96177.28;6242386;27;103232;-58
2022/05/19 03:39:27;;;;;;;3.73;1.53;;;;;;;22.01;34.06;96189.63;6243248;27;103338;-58
2022/05/19 03:42:31;;;;;;;2.33;1.30;;;;;;;22.08;35.94;96189.31;6251466;27;103266;-57
2022/05/19 03:45:34;;;;;;;2.10;1.20;;;;;;;21.90;33.47;96196.09;6244986;27;103962;-58
2022/05/19 03:48:39;;;;;;;3.67;1.70;;;;;;;21.83;33.56;96203.56;6254581;27;104217;-57
2022/05/19 03:51:43;;;;;;;3.47;2.30;;;;;;;21.79;33.26;96200.63;6244085;27;103049;-58
2022/05/19 03:54:46;;;;;;;5.60;1.93;;;;;;;21.74;33.08;96203.34;6232755;27;103450;-57
2022/05/19 03:57:49;;;;;;;3.50;1.80;;;;;;;21.80;33.41;96209.44;6261283;27;103137;-58
2022/05/19 04:00:52;;;;;;;3.33;1.80;;;;;;;21.95;33.78;96211.25;6240388;27;104645;-57
2022/05/19 04:03:57;;;;;;;3.50;2.10;;;;;;;22.12;34.26;96225.00;6246297;27;104179;-57
2022/05/19 04:07:00;;;;;;;4.17;2.57;;;;;;;22.07;33.58;96217.84;6249362;27;103927;-57
2022/05/19 04:10:05;;;;;;;2.93;2.07;;;;;;;21.73;33.24;96222.25;6238782;27;103011;-56
2022/05/19 04:13:08;;;;;;;4.23;1.83;;;;;;;21.71;34.07;96222.53;6242383;27;104243;-56
2022/05/19 04:16:12;;;;;;;2.17;1.83;;;;;;;21.94;33.07;96226.44;6253138;27;104336;-56
2022/05/19 04:19:16;;;;;;;4.83;1.87;;;;;;;22.01;33.03;96229.59;6255696;27;103916;-57
2022/05/19 04:22:19;;;;;;;2.70;2.20;;;;;;;21.58;32.33;96220.47;6248497;27;104280;-56
2022/05/19 04:25:23;;;;;;;2.83;2.40;;;;;;;21.45;33.34;96224.50;6235348;27;103011;-56
2022/05/19 04:28:26;;;;;;;3.67;2.50;;;;;;;21.44;33.02;96222.91;6223830;27;103130;-56
2022/05/19 04:31:29;;;;;;;3.80;2.40;;;;;;;21.33;33.33;96231.19;6233632;28;104114;-56
2022/05/19 04:34:34;;;;;;;3.27;2.03;;;;;;;20.88;33.41;96231.03;6234255;28;103150;-56
2022/05/19 04:37:37;;;;;;;4.90;1.97;;;;;;;20.76;33.82;96227.84;6234270;28;104144;-56
2022/05/19 04:40:43;;;;;;;2.53;1.93;;;;;;;20.84;33.51;96223.84;6224691;27;105538;-56
2022/05/19 04:43:47;;;;;;;1.97;1.77;;;;;;;20.83;33.81;96233.66;6236525;27;103049;-56
2022/05/19 04:46:50;;;;;;;2.00;1.80;;;;;;;20.84;33.55;96229.97;6236242;27;103541;-56
2022/05/19 04:49:55;;;;;;;2.10;1.90;;;;;;;20.94;33.88;96229.13;6235801;27;102978;-56
2022/05/19 04:52:59;;;;;;;4.13;2.00;;;;;;;21.01;33.40;96229.69;6248850;27;102963;-56
2022/05/19 04:56:02;;;;;;;2.70;2.23;;;;;;;21.04;33.68;96231.78;6261114;27;102698;-56
2022/05/19 04:59:13;;;;;;;3.80;2.37;;;;;;;21.03;33.35;96232.84;6261739;27;104423;-57
2022/05/19 05:02:16;;;;;;;5.07;3.63;;;;;;;21.09;33.54;96242.44;6250079;27;103034;-57
2022/05/19 05:05:21;;;;;;;5.13;3.10;;;;;;;21.12;33.65;96236.59;6260245;27;102958;-57
2022/05/19 05:08:24;;;;;;;4.27;3.87;;;;;;;21.16;33.76;96234.97;6261122;27;104253;-57
2022/05/19 05:11:28;;;;;;;3.80;3.50;;;;;;;21.22;33.56;96251.75;6261250;27;104250;-57
2022/05/19 05:14:31;;;;;;;4.13;2.87;;;;;;;21.15;33.97;96252.00;6250092;27;103610;-56
2022/05/19 05:17:34;;;;;;;3.30;2.80;;;;;;;21.13;33.71;96248.81;6261004;27;103182;-56
2022/05/19 05:20:41;;;;;;;3.23;2.93;;;;;;;21.17;33.77;96254.41;6261221;27;103591;-56
2022/05/19 05:23:45;;;;;;;4.00;3.03;;;;;;;21.18;34.07;96250.69;6260992;27;103713;-56
2022/05/19 05:26:48;;;;;;;4.33;3.57;;;;;;;21.31;34.96;96255.44;6249817;27;103081;-56
2022/05/19 05:29:51;;;;;;;3.43;3.10;;;;;;;21.40;34.38;96253.81;6260231;27;104270;-57
2022/05/19 05:32:54;;;;;;;5.33;2.73;;;;;;;21.49;34.65;96257.50;6260520;27;103175;-57
2022/05/19 05:35:59;;;;;;;4.33;3.17;;;;;;;21.54;34.97;96253.25;6255934;27;103721;-57
2022/05/19 05:39:02;;;;;;;4.13;3.03;;;;;;;21.49;34.45;96251.38;6255396;27;103073;-57
2022/05/19 05:42:06;;;;;;;3.30;3.10;;;;;;;21.47;33.94;96256.19;6260563;27;104227;-57
2022/05/19 05:45:11;;;;;;;3.67;3.37;;;;;;;21.41;34.66;96252.75;6260621;27;102836;-56
2022/05/19 05:48:15;;;;;;;4.30;4.00;;;;;;;21.50;34.01;96259.09;6249697;27;103083;-56
2022/05/19 05:51:20;;;;;;;3.87;3.53;;;;;;;21.58;34.07;96260.41;6260366;27;104362;-56
2022/05/19 05:54:23;;;;;;;4.10;3.70;;;;;;;21.61;34.38;96265.19;6260480;27;103291;-56
2022/05/19 05:57:30;;;;;;;4.50;4.10;;;;;;;21.65;34.62;96257.44;6260159;27;103010;-56
2022/05/19 06:00:33;;;;;;;5.60;4.23;;;;;;;21.71;34.04;96251.84;6250294;27;103183;-56
2022/05/19 06:03:37;;;;;;;3.97;3.53;;;;;;;21.73;34.13;96262.22;6260683;27;104033;-56
2022/05/19 06:06:45;;;;;;;3.70;3.37;;;;;;;21.79;34.04;96255.78;6259362;27;103922;-56
2022/05/19 06:09:49;;;;;;;4.50;4.10;;;;;;;21.83;34.00;96262.19;6255314;27;104036;-56
2022/05/19 06:12:53;;;;;;;4.40;4.03;;;;;;;21.91;34.48;96256.31;6254266;27;102991;-56
2022/05/19 06:15:56;;;;;;;7.00;3.97;;;;;;;22.03;34.13;96259.44;6259469;27;103187;-56
2022/05/19 06:18:59;;;;;;;5.30;3.53;;;;;;;22.24;34.93;96267.31;6260340;27;103988;-57
2022/05/19 06:22:04;;;;;;;4.03;3.63;;;;;;;22.32;34.17;96259.50;6248940;27;104167;-56
2022/05/19 06:25:08;;;;;;;4.57;4.13;;;;;;;22.40;34.46;96269.59;6260693;27;103336;-56
2022/05/19 06:28:12;;;;;;;6.20;4.17;;;;;;;22.37;34.99;96272.03;6259903;27;103464;-56
2022/05/19 06:31:15;;;;;;;4.30;4.00;;;;;;;22.29;34.77;96270.75;6259631;27;104311;-56
2022/05/19 06:34:18;;;;;;;4.73;4.33;;;;;;;22.29;34.86;96272.59;6248832;27;102966;-56
2022/05/19 06:37:23;;;;;;;19.93;13.83;;;;;;;22.33;35.08;96270.97;6262042;27;103171;-57
2022/05/19 06:40:29;;;;;;;13.33;12.20;;;;;;;22.36;35.13;96275.78;6263530;27;103809;-57
2022/05/19 06:43:32;;;;;;;9.03;8.30;;;;;;;22.34;35.65;96277.91;6262956;27;103005;-56
2022/05/19 06:46:35;;;;;;;8.90;8.10;;;;;;;22.31;35.37;96271.25;6253419;27;103253;-56
2022/05/19 06:49:38;;;;;;;8.40;7.60;;;;;;;22.27;35.68;96275.56;6263561;27;103132;-55
2022/05/19 06:52:48;;;;;;;10.90;6.20;;;;;;;22.35;34.86;96268.84;6263175;27;103165;-56
2022/05/19 06:55:51;;;;;;;6.10;5.47;;;;;;;22.29;35.29;96270.75;6253881;27;103662;-56
2022/05/19 06:58:54;;;;;;;8.10;6.60;;;;;;;22.34;35.21;96272.56;6263343;27;104166;-56
2022/05/19 07:01:58;;;;;;;10.57;6.90;;;;;;;22.40;35.73;96279.47;6263657;27;104109;-56
2022/05/19 07:05:01;;;;;;;7.50;6.77;;;;;;;22.43;35.96;96281.59;6263234;27;103362;-56
2022/05/19 07:08:05;;;;;;;9.30;7.83;;;;;;;22.34;35.96;96277.91;6252353;27;102957;-56
2022/05/19 07:11:24;;;;;;;11.43;7.63;;;;;;;22.26;36.37;96281.16;6263542;27;104246;-57
2022/05/19 07:14:32;;;;;;;8.67;7.87;;;;;;;22.27;36.00;96283.56;6262423;27;103260;-57
2022/05/19 07:17:35;;;;;;;9.60;7.93;;;;;;;22.39;35.88;96281.34;6262976;27;103389;-56
2022/05/19 07:20:48;;;;;;;7.97;7.27;;;;;;;22.48;35.70;96281.53;6251253;27;103020;-56
2022/05/19 07:23:54;;;;;;;8.57;7.70;;;;;;;22.56;36.07;96280.97;6262600;27;103054;-58
2022/05/19 07:26:58;;;;;;;8.33;7.53;;;;;;;22.64;36.11;96275.06;6263307;27;103093;-57
2022/05/19 07:30:01;;;;;;;11.30;7.93;;;;;;;22.68;35.86;96278.78;6251658;27;104078;-58
2022/05/19 07:33:06;;;;;;;9.07;8.17;;;;;;;22.67;36.10;96276.38;6262413;27;103843;-58
2022/05/19 07:36:09;;;;;;;8.10;7.40;;;;;;;22.73;35.65;96275.28;6261510;27;102827;-58
2022/05/19 07:39:14;;;;;;;10.53;8.50;;;;;;;22.76;36.45;96273.91;6262405;27;103212;-56
2022/05/19 07:42:17;;;;;;;9.20;8.27;;;;;;;22.73;35.81;96266.47;6251785;27;106419;-58
2022/05/19 07:45:21;;;;;;;11.60;8.40;;;;;;;22.56;36.18;96267.63;6262358;27;103178;-56
2022/05/19 07:48:24;;;;;;;9.60;8.70;;;;;;;22.49;36.65;96255.66;6262082;27;103167;-56
2022/05/19 07:51:29;;;;;;;10.20;9.20;;;;;;;22.53;36.48;96268.19;6262224;27;102941;-56
2022/05/19 07:54:34;;;;;;;9.97;8.40;;;;;;;22.68;36.19;96268.09;6251236;27;104182;-57
2022/05/19 07:57:38;;;;;;;9.70;8.20;;;;;;;22.77;36.17;96262.16;6261643;27;103085;-56
2022/05/19 08:00:41;;;;;;;8.70;7.90;;;;;;;22.82;36.26;96259.44;6261985;27;102864;-56
2022/05/19 08:03:44;;;;;;;8.20;7.40;;;;;;;22.86;35.98;96266.63;6257290;27;104524;-56
2022/05/19 08:06:48;;;;;;;8.40;7.20;;;;;;;22.88;36.09;96266.34;6258467;27;106646;-57
2022/05/19 08:16:33;;;;;;;7.17;6.47;;;;;;;22.85;35.36;96257.03;6251218;27;103086;-57
2022/05/19 08:19:37;;;;;;;6.87;6.20;;;;;;;22.79;34.87;96258.13;6261401;27;102897;-59
2022/05/19 08:22:40;;;;;;;9.37;5.60;;;;;;;22.84;35.33;96257.28;6261695;27;103118;-56
2022/05/19 08:25:45;;;;;;;7.30;6.60;;;;;;;22.83;34.92;96253.81;6261433;27;103288;-56
2022/05/19 08:28:50;;;;;;;6.67;5.90;;;;;;;22.87;35.19;96252.19;6251504;27;104154;-57
2022/05/19 08:31:53;;;;;;;5.93;5.33;;;;;;;22.94;35.46;96247.31;6261715;27;104271;-58
2022/05/19 08:34:57;;;;;;;7.47;6.80;;;;;;;22.99;34.78;96249.13;6261345;27;103391;-58
2022/05/19 08:38:01;;;;;;;7.10;5.43;;;;;;;23.00;34.45;96253.41;6252048;27;104485;-57
2022/05/19 08:41:12;;;;;;;5.53;5.03;;;;;;;22.96;34.79;96250.50;6261595;27;103243;-58
2022/05/19 08:44:21;;;;;;;6.53;4.50;;;;;;;22.89;34.34;96242.03;6261183;27;102740;-58
2022/05/19 08:47:28;;;;;;;6.90;5.13;;;;;;;22.96;34.84;96247.03;6261572;27;102917;-58
2022/05/19 08:50:38;;;;;;;5.53;4.83;;;;;;;23.01;34.20;96241.63;6250681;27;103396;-58
2022/05/19 08:53:43;;;;;;;6.40;5.90;;;;;;;23.05;33.66;96234.69;6262077;27;103707;-58
2022/05/19 08:56:53;;;;;;;6.23;5.73;;;;;;;23.13;33.17;96238.59;6260695;27;103106;-56
2022/05/19 09:00:04;;;;;;;6.80;5.67;;;;;;;23.18;33.19;96231.31;6258396;27;103221;-56
2022/05/19 09:03:19;;;;;;;6.53;4.80;;;;;;;23.17;33.33;96227.06;6255962;27;103382;-56
2022/05/19 09:06:34;;;;;;;4.60;4.20;;;;;;;23.16;33.37;96227.34;6260550;27;102997;-57
2022/05/19 09:09:51;;;;;;;4.37;3.97;;;;;;;23.29;33.39;96222.16;6261150;27;104084;-57
2022/05/19 09:13:12;;;;;;;4.10;3.80;;;;;;;23.36;32.52;96218.38;6250835;27;104229;-57
2022/05/19 09:16:17;;;;;;;5.23;4.73;;;;;;;23.30;32.70;96226.41;6260882;27;103285;-57
2022/05/19 09:19:26;;;;;;;5.50;5.00;;;;;;;23.34;32.99;96217.81;6260580;27;103989;-58
2022/05/19 09:22:33;;;;;;;6.10;5.60;;;;;;;23.42;32.32;96211.88;6260679;27;103139;-57
2022/05/19 09:25:41;;;;;;;4.60;4.20;;;;;;;23.30;31.98;96215.72;6251401;27;104065;-57
2022/05/19 09:28:46;;;;;;;3.60;3.20;;;;;;;23.28;30.78;96206.38;6259948;27;104182;-58
2022/05/19 09:31:54;;;;;;;3.50;3.20;;;;;;;23.35;30.96;96206.06;6261285;27;103957;-57
2022/05/19 09:35:06;;;;;;;4.73;4.23;;;;;;;23.29;31.81;96197.31;6250276;27;104168;-57
2022/05/19 09:38:31;;;;;;;3.97;3.33;;;;;;;23.34;30.52;96199.13;6260852;27;102893;-57
2022/05/19 09:41:39;;;;;;;4.83;3.30;;;;;;;23.34;31.10;96191.13;6260330;27;103486;-57
2022/05/19 09:44:50;;;;;;;3.70;3.40;;;;;;;23.30;30.77;96189.03;6260951;27;104057;-57
2022/05/19 09:47:58;;;;;;;3.63;3.37;;;;;;;23.35;30.83;96196.16;6249715;27;103830;-58
2022/05/19 09:51:05;;;;;;;3.90;3.60;;;;;;;23.29;31.64;96197.31;6260507;27;104334;-57
2022/05/19 09:54:12;;;;;;;3.30;3.00;;;;;;;23.25;31.05;96193.59;6260321;27;103061;-57
2022/05/19 09:57:27;;;;;;;4.40;3.67;;;;;;;23.22;31.19;96191.50;6253567;27;103056;-58
2022/05/19 10:00:38;;;;;;;3.40;3.10;;;;;;;23.19;31.91;96184.06;6259431;27;104227;-57
2022/05/19 10:03:46;;;;;;;3.00;2.80;;;;;;;23.18;31.57;96190.47;6260115;27;103990;-57
2022/05/19 10:06:52;;;;;;;3.37;2.83;;;;;;;23.25;31.41;96191.72;6260207;27;102971;-57
2022/05/19 10:09:57;;;;;;;3.33;3.13;;;;;;;23.21;31.18;96185.38;6250240;27;103977;-57
2022/05/19 10:13:04;;;;;;;3.73;3.40;;;;;;;23.28;31.17;96175.13;6263514;27;104286;-57
2022/05/19 10:16:17;;;;;;;3.37;3.07;;;;;;;23.28;31.13;96169.78;6263992;27;103188;-57
2022/05/19 10:19:42;;;;;;;3.60;3.30;;;;;;;23.24;31.74;96173.31;6263222;27;103377;-58
2022/05/19 10:23:00;;;;;;;2.73;2.53;;;;;;;23.19;31.32;96173.38;6259917;27;104163;-57
2022/05/19 10:26:27;;;;;;;4.00;2.70;;;;;;;23.14;31.45;96163.53;6264305;27;104171;-58
2022/05/19 10:33:16;;;;;;;4.20;2.33;;;;;;;23.09;31.34;96157.47;6253895;27;104620;-57
2022/05/19 10:36:27;;;;;;;2.57;2.37;;;;;;;23.10;30.34;96151.84;6264768;27;103981;-57
2022/05/19 10:39:51;;;;;;;4.20;2.53;;;;;;;23.09;31.46;96150.25;6264485;27;103471;-57
2022/05/19 10:43:07;;;;;;;2.30;2.10;;;;;;;23.04;30.90;96154.88;6253329;27;102971;-58
2022/05/19 10:46:15;;;;;;;2.10;1.90;;;;;;;22.98;30.83;96149.56;6263084;27;103599;-58
2022/05/19 10:49:52;;;;;;;2.10;2.00;;;;;;;23.01;30.84;96138.31;6263254;27;103772;-58
2022/05/19 10:53:28;;;;;;;1.70;1.60;;;;;;;23.10;30.89;96140.38;6263669;27;103161;-56
2022/05/19 10:56:54;;;;;;;2.80;2.00;;;;;;;23.14;30.84;96128.81;6254387;27;103841;-56
2022/05/19 11:00:12;;;;;;;2.60;2.40;;;;;;;23.16;31.00;96139.22;6263691;27;103058;-56
2022/05/19 11:03:45;;;;;;;3.20;2.90;;;;;;;23.16;31.04;96140.00;6263310;27;102877;-56
2022/05/19 11:07:13;;;;;;;3.30;3.00;;;;;;;23.15;31.28;96126.94;6250209;27;104300;-56
2022/05/19 11:10:27;;;;;;;6.47;4.37;;;;;;;23.14;30.89;96126.16;6263543;27;103274;-56
2022/05/19 11:13:44;;;;;;;4.20;3.90;;;;;;;23.12;31.35;96133.66;6263391;27;103007;-56
2022/05/19 11:16:57;;;;;;;3.67;3.37;;;;;;;23.11;31.25;96120.59;6257094;27;104871;-55
2022/05/19 11:20:06;;;;;;;4.17;3.30;;;;;;;23.12;31.31;96122.19;6262974;27;103145;-56
2022/05/19 11:23:20;;;;;;;3.50;3.27;;;;;;;23.11;31.69;96108.03;6263293;27;104149;-57
2022/05/19 11:26:28;;;;;;;4.57;3.33;;;;;;;23.11;31.73;96107.25;6262657;27;104171;-56
2022/05/19 11:29:39;;;;;;;2.77;2.57;;;;;;;23.10;31.68;96106.44;6252295;27;103681;-57
2022/05/19 11:32:43;;;;;;;5.13;3.67;;;;;;;23.09;31.33;96099.53;6262740;27;103212;-56
2022/05/19 11:35:51;;;;;;;3.97;3.60;;;;;;;23.09;31.59;96102.19;6262666;27;102964;-56
2022/05/19 11:39:02;;;;;;;3.57;3.27;;;;;;;23.08;31.74;96089.13;6260143;27;103176;-56
2022/05/19 11:42:28;;;;;;;3.37;3.17;;;;;;;23.08;31.77;96089.13;6256816;27;103078;-56
2022/05/19 11:45:35;;;;;;;4.20;3.90;;;;;;;23.06;32.25;96086.75;6262910;27;103707;-55
2022/05/19 11:55:45;;;;;;;5.50;5.10;;;;;;;23.01;32.08;96068.91;6261932;27;103295;-56
2022/05/19 11:58:49;;;;;;;5.17;4.70;;;;;;;22.99;31.99;96072.94;6262435;27;104167;-55
2022/05/19 12:01:54;;;;;;;6.23;5.73;;;;;;;22.94;32.04;96065.81;6256592;27;103057;-56
2022/05/19 12:05:10;;;;;;;5.30;4.23;;;;;;;22.89;32.03;96060.53;6257979;27;105353;-56
2022/05/19 12:08:19;;;;;;;4.43;4.03;;;;;;;22.85;31.60;96050.69;6262378;27;103063;-56
2022/05/19 12:11:29;;;;;;;4.33;3.10;;;;;;;22.79;31.76;96049.97;6262303;27;103952;-56
2022/05/19 12:14:40;;;;;;;3.10;2.90;;;;;;;22.75;30.73;96035.63;6252657;27;104814;-56
2022/05/19 12:17:45;;;;;;;5.00;2.40;;;;;;;22.76;30.81;96049.75;6261296;27;103044;-56
2022/05/19 12:20:55;;;;;;;2.40;2.20;;;;;;;22.74;31.22;96044.69;6262168;27;103669;-57
2022/05/19 12:24:04;;;;;;;2.37;2.17;;;;;;;22.78;30.91;96036.91;6261421;27;102864;-56
2022/05/19 12:27:15;;;;;;;2.83;2.63;;;;;;;22.78;30.88;96031.56;6250559;27;103087;-56
2022/05/19 12:33:53;;;;;;;5.77;2.30;;;;;;;22.77;31.06;96027.31;6260666;27;103987;-57
2022/05/19 12:37:08;;;;;;;2.53;2.30;;;;;;;22.76;30.92;96018.53;6251905;27;104489;-56
2022/05/19 12:40:30;;;;;;;3.80;2.57;;;;;;;22.77;30.71;96016.66;6261439;27;103772;-56
2022/05/19 12:43:40;;;;;;;3.20;2.27;;;;;;;22.74;30.95;96009.22;6261908;27;104083;-56
2022/05/19 12:46:46;;;;;;;3.87;2.30;;;;;;;22.76;30.48;96015.06;6262013;27;104258;-56
2022/05/19 12:50:19;;;;;;;3.60;2.47;;;;;;;22.74;30.83;96007.34;6250302;27;103704;-56
2022/05/19 12:54:03;;;;;;;2.70;2.00;;;;;;;22.74;31.06;95998.53;6235448;27;103110;-57
2022/05/19 12:57:27;;;;;;;5.70;3.17;;;;;;;22.78;30.59;95994.22;6211438;27;103184;-56
2022/05/19 13:00:37;;;;;;;2.40;2.20;;;;;;;22.88;30.90;95986.09;6245214;27;103974;-56
2022/05/19 13:03:43;;;;;;;3.43;3.13;;;;;;;22.93;31.02;95984.13;6236886;27;102959;-56
2022/05/19 13:06:53;;;;;;;3.03;2.83;;;;;;;22.94;31.44;95987.59;6234956;27;103180;-56
2022/05/19 13:10:02;;;;;;;2.60;2.30;;;;;;;22.95;31.00;95973.97;6231028;28;104202;-56
2022/05/19 13:13:09;;;;;;;3.43;2.63;;;;;;;22.96;31.03;95974.75;6238296;27;103053;-56
2022/05/19 13:16:17;;;;;;;2.73;2.30;;;;;;;22.98;31.23;95961.91;6260576;27;103168;-56
2022/05/19 13:19:23;;;;;;;3.10;2.07;;;;;;;22.98;31.11;95973.38;6246608;27;102991;-56
2022/05/19 13:22:30;;;;;;;2.77;2.57;;;;;;;22.98;31.14;95962.69;6225134;27;102960;-56
2022/05/19 13:25:43;;;;;;;3.40;2.20;;;;;;;23.00;31.60;95959.75;6255226;27;102944;-56
2022/05/19 13:32:24;;;;;;;2.13;2.03;;;;;;;22.98;31.40;95944.03;6259720;27;104219;-56
2022/05/19 13:35:27;;;;;;;2.33;2.13;;;;;;;22.99;31.12;95942.94;6253694;27;102906;-56
2022/05/19 13:38:31;;;;;;;2.17;2.07;;;;;;;22.99;30.51;95942.94;6260100;27;104241;-56
2022/05/19 13:41:36;;;;;;;2.80;2.50;;;;;;;23.00;30.56;95943.72;6260968;27;103082;-56
2022/05/19 13:44:42;;;;;;;2.33;2.13;;;;;;;23.00;30.99;95938.38;6251761;27;105056;-56
2022/05/19 13:47:48;;;;;;;2.63;2.43;;;;;;;22.99;30.36;95932.25;6264648;27;104140;-55
2022/05/19 13:50:51;;;;;;;3.70;2.63;;;;;;;23.01;30.45;95931.97;6264973;27;104011;-56
2022/05/19 13:53:58;;;;;;;2.47;2.20;;;;;;;22.97;30.50;95933.63;6264697;27;103026;-56
2022/05/19 13:57:03;;;;;;;2.00;1.83;;;;;;;22.96;30.56;95932.03;6254804;27;103353;-56
2022/05/19 14:00:11;;;;;;;2.73;2.33;;;;;;;22.94;30.61;95936.88;6263623;27;103007;-56
2022/05/19 14:03:18;;;;;;;2.40;1.90;;;;;;;22.96;30.24;95937.38;6264911;27;103095;-56
2022/05/19 14:06:25;;;;;;;2.40;2.13;;;;;;;22.96;30.39;95937.38;6265396;27;104271;-56
2022/05/19 14:09:39;;;;;;;2.10;1.90;;;;;;;22.98;29.89;95933.34;6256048;27;105085;-56
2022/05/19 14:12:45;;;;;;;2.70;2.00;;;;;;;23.00;30.17;95935.72;6265434;27;104302;-56
2022/05/19 14:15:52;;;;;;;2.00;1.80;;;;;;;23.00;30.11;95928.50;6264418;27;104233;-56
2022/05/19 14:19:19;;;;;;;2.30;2.03;;;;;;;23.00;30.24;95923.16;6253969;27;104007;-56
2022/05/19 14:22:23;;;;;;;2.30;2.10;;;;;;;23.04;30.57;95933.28;6264598;27;103244;-56
2022/05/19 14:25:30;;;;;;;2.60;2.47;;;;;;;23.02;30.05;95925.56;6264525;27;104068;-56
2022/05/19 14:28:35;;;;;;;2.13;2.03;;;;;;;23.02;30.30;95928.25;6263993;27;103603;-56
2022/05/19 14:31:51;;;;;;;2.37;2.17;;;;;;;23.05;30.63;95932.19;6253130;27;103407;-56
2022/05/19 14:35:06;;;;;;;2.80;2.50;;;;;;;23.05;30.46;95919.66;6264768;27;103954;-56
2022/05/19 14:38:17;;;;;;;2.90;2.60;;;;;;;23.05;30.59;95924.97;6263879;27;104122;-56
2022/05/19 14:44:51;;;;;;;2.57;2.30;;;;;;;23.10;30.64;95929.44;6263519;27;103256;-56
2022/05/19 14:47:54;;;;;;;3.47;2.53;;;;;;;23.12;30.10;95925.41;6264163;27;104626;-55
2022/05/19 14:51:17;;;;;;;2.60;2.40;;;;;;;23.12;30.75;95930.75;6263554;27;103384;-56
2022/05/19 14:54:23;;;;;;;2.80;2.60;;;;;;;23.10;30.31;95927.56;6253025;27;102940;-56
2022/05/19 14:57:30;;;;;;;2.77;2.57;;;;;;;23.11;30.10;95926.47;6263648;27;104211;-56
2022/05/19 15:00:35;;;;;;;4.07;2.70;;;;;;;23.15;29.87;95927.47;6263197;27;103055;-57
2022/05/19 15:03:39;;;;;;;2.10;2.00;;;;;;;23.15;28.90;95932.81;6258528;27;103082;-58